sensor_id;sensor_type;location;lat;lon;timestamp;P1;durP1;ratioP1;P2;durP2;ratioP2
16387;SDS011;8303;53.446;9.988;2023-06-10T04:43:33;29.10;;;26.67;;
16387;SDS011;8303;53.446;9.988;2023-06-10T04:46:00;64.00;;;59.80;;
16387;SDS011;8303;53.446;9.988;2023-06-10T04:48:26;38.63;;;35.73;;
16387;SDS011;8303;53.446;9.988;2023-06-10T04:50:53;40.53;;;37.97;;
16387;SDS011;8303;53.446;9.988;2023-06-10T04:53:21;38.27;;;35.57;;
16387;SDS011;8303;53.446;9.988;2023-06-10T04:55:48;48.30;;;45.43;;
16387;SDS011;8303;53.446;9.988;2023-06-10T04:58:16;37.70;;;35.13;;
16387;SDS011;8303;53.446;9.988;2023-06-10T05:00:45;53.23;;;50.13;;
16387;SDS011;8303;53.446;9.988;2023-06-10T05:03:12;47.57;;;44.80;;
16387;SDS011;8303;53.446;9.988;2023-06-10T05:05:38;49.23;;;45.77;;
16387;SDS011;8303;53.446;9.988;2023-06-10T05:08:05;60.57;;;56.73;;
16387;SDS011;8303;53.446;9.988;2023-06-10T05:10:33;55.30;;;51.73;;
16387;SDS011;8303;53.446;9.988;2023-06-10T05:13:00;60.20;;;56.57;;
16387;SDS011;8303;53.446;9.988;2023-06-10T05:15:28;53.90;;;50.63;;
16387;SDS011;8303;53.446;9.988;2023-06-10T05:17:57;49.67;;;46.63;;
16387;SDS011;8303;53.446;9.988;2023-06-10T05:20:24;52.83;;;49.13;;
16387;SDS011;8303;53.446;9.988;2023-06-10T05:22:51;50.30;;;47.30;;
16387;SDS011;8303;53.446;9.988;2023-06-10T05:25:18;56.60;;;53.37;;
16387;SDS011;8303;53.446;9.988;2023-06-10T05:27:45;47.07;;;43.57;;
16387;SDS011;8303;53.446;9.988;2023-06-10T05:30:12;52.97;;;49.77;;
16387;SDS011;8303;53.446;9.988;2023-06-10T05:32:40;62.33;;;58.83;;
16387;SDS011;8303;53.446;9.988;2023-06-10T05:35:08;55.73;;;52.17;;
16387;SDS011;8303;53.446;9.988;2023-06-10T05:37:38;52.70;;;49.60;;
16387;SDS011;8303;53.446;9.988;2023-06-10T05:40:05;58.80;;;55.10;;
16387;SDS011;8303;53.446;9.988;2023-06-10T05:42:33;58.07;;;54.47;;
16387;SDS011;8303;53.446;9.988;2023-06-10T05:45:00;50.33;;;47.27;;
16387;SDS011;8303;53.446;9.988;2023-06-10T05:47:27;46.87;;;43.40;;
16387;SDS011;8303;53.446;9.988;2023-06-10T05:49:54;46.37;;;43.33;;
16387;SDS011;8303;53.446;9.988;2023-06-10T05:52:22;55.80;;;52.07;;
16387;SDS011;8303;53.446;9.988;2023-06-10T05:54:50;49.03;;;46.13;;
16387;SDS011;8303;53.446;9.988;2023-06-10T05:57:16;52.27;;;49.13;;
16387;SDS011;8303;53.446;9.988;2023-06-10T05:59:43;46.80;;;43.80;;
16387;SDS011;8303;53.446;9.988;2023-06-10T06:02:10;52.77;;;49.57;;
16387;SDS011;8303;53.446;9.988;2023-06-10T06:04:37;45.80;;;42.67;;
16387;SDS011;8303;53.446;9.988;2023-06-10T06:07:04;42.33;;;39.30;;
16387;SDS011;8303;53.446;9.988;2023-06-10T06:09:33;34.33;;;31.93;;
16387;SDS011;8303;53.446;9.988;2023-06-10T06:12:00;40.70;;;37.67;;
16387;SDS011;8303;53.446;9.988;2023-06-10T06:14:30;60.70;;;56.90;;
16387;SDS011;8303;53.446;9.988;2023-06-10T06:16:57;44.03;;;41.30;;
16387;SDS011;8303;53.446;9.988;2023-06-10T06:19:24;47.17;;;44.07;;
16387;SDS011;8303;53.446;9.988;2023-06-10T06:21:51;42.10;;;39.40;;
16387;SDS011;8303;53.446;9.988;2023-06-10T06:24:18;49.13;;;45.87;;
16387;SDS011;8303;53.446;9.988;2023-06-10T06:26:46;39.10;;;36.23;;
16387;SDS011;8303;53.446;9.988;2023-06-10T06:29:13;41.93;;;39.37;;
16387;SDS011;8303;53.446;9.988;2023-06-10T06:31:40;40.90;;;38.33;;
16387;SDS011;8303;53.446;9.988;2023-06-10T06:34:07;41.23;;;38.63;;
16387;SDS011;8303;53.446;9.988;2023-06-10T06:36:34;27.20;;;24.97;;
16387;SDS011;8303;53.446;9.988;2023-06-10T06:39:01;32.40;;;30.30;;
16387;SDS011;8303;53.446;9.988;2023-06-10T06:41:28;33.27;;;30.93;;
16387;SDS011;8303;53.446;9.988;2023-06-10T06:43:56;34.07;;;31.57;;
16387;SDS011;8303;53.446;9.988;2023-06-10T06:46:23;31.63;;;29.60;;
16387;SDS011;8303;53.446;9.988;2023-06-10T06:48:50;35.30;;;32.93;;
16387;SDS011;8303;53.446;9.988;2023-06-10T06:51:16;53.77;;;50.07;;
16387;SDS011;8303;53.446;9.988;2023-06-10T06:53:43;39.07;;;36.43;;
16387;SDS011;8303;53.446;9.988;2023-06-10T06:56:10;37.27;;;35.07;;
16387;SDS011;8303;53.446;9.988;2023-06-10T06:58:38;32.63;;;30.27;;
16387;SDS011;8303;53.446;9.988;2023-06-10T07:01:06;29.20;;;27.20;;
16387;SDS011;8303;53.446;9.988;2023-06-10T07:03:33;38.60;;;36.00;;
16387;SDS011;8303;53.446;9.988;2023-06-10T07:06:00;35.80;;;32.77;;
16387;SDS011;8303;53.446;9.988;2023-06-10T07:08:27;31.97;;;29.87;;
16387;SDS011;8303;53.446;9.988;2023-06-10T07:10:54;42.60;;;39.97;;
16387;SDS011;8303;53.446;9.988;2023-06-10T07:13:21;43.87;;;40.70;;
16387;SDS011;8303;53.446;9.988;2023-06-10T07:15:47;35.27;;;33.00;;
16387;SDS011;8303;53.446;9.988;2023-06-10T07:18:16;37.08;;;34.58;;
16387;SDS011;8303;53.446;9.988;2023-06-10T07:20:43;37.43;;;35.20;;
16387;SDS011;8303;53.446;9.988;2023-06-10T07:23:13;39.35;;;36.92;;
16387;SDS011;8303;53.446;9.988;2023-06-10T07:25:42;55.58;;;51.78;;
16387;SDS011;8303;53.446;9.988;2023-06-10T07:28:09;22.13;;;20.50;;
16387;SDS011;8303;53.446;9.988;2023-06-10T07:30:36;23.95;;;22.02;;
16387;SDS011;8303;53.446;9.988;2023-06-10T07:33:03;20.88;;;19.30;;
16387;SDS011;8303;53.446;9.988;2023-06-10T07:35:34;25.20;;;23.33;;
16387;SDS011;8303;53.446;9.988;2023-06-10T07:38:00;31.67;;;29.42;;
16387;SDS011;8303;53.446;9.988;2023-06-10T07:40:27;50.85;;;47.30;;
16387;SDS011;8303;53.446;9.988;2023-06-10T07:42:54;62.33;;;58.50;;
16387;SDS011;8303;53.446;9.988;2023-06-10T07:45:22;42.70;;;39.97;;
16387;SDS011;8303;53.446;9.988;2023-06-10T07:47:49;44.20;;;41.17;;
16387;SDS011;8303;53.446;9.988;2023-06-10T07:50:16;52.80;;;49.60;;
16387;SDS011;8303;53.446;9.988;2023-06-10T07:52:44;49.72;;;46.60;;
16387;SDS011;8303;53.446;9.988;2023-06-10T07:55:11;31.23;;;28.92;;
16387;SDS011;8303;53.446;9.988;2023-06-10T07:57:38;46.33;;;43.33;;
16387;SDS011;8303;53.446;9.988;2023-06-10T08:00:05;55.35;;;51.88;;
16387;SDS011;8303;53.446;9.988;2023-06-10T08:02:34;50.83;;;47.85;;
16387;SDS011;8303;53.446;9.988;2023-06-10T08:05:02;49.30;;;46.47;;
16387;SDS011;8303;53.446;9.988;2023-06-10T08:07:30;45.22;;;42.40;;
16387;SDS011;8303;53.446;9.988;2023-06-10T08:09:58;47.65;;;44.85;;
16387;SDS011;8303;53.446;9.988;2023-06-10T08:12:25;41.45;;;38.70;;
16387;SDS011;8303;53.446;9.988;2023-06-10T08:14:52;28.75;;;26.55;;
16387;SDS011;8303;53.446;9.988;2023-06-10T08:17:20;63.65;;;59.78;;
16387;SDS011;8303;53.446;9.988;2023-06-10T08:19:47;51.85;;;48.92;;
16387;SDS011;8303;53.446;9.988;2023-06-10T08:22:13;49.08;;;46.28;;
16387;SDS011;8303;53.446;9.988;2023-06-10T08:24:41;46.35;;;43.05;;
16387;SDS011;8303;53.446;9.988;2023-06-10T08:27:09;49.22;;;46.35;;
16387;SDS011;8303;53.446;9.988;2023-06-10T08:29:36;63.70;;;59.85;;
16387;SDS011;8303;53.446;9.988;2023-06-10T08:32:03;52.88;;;49.85;;
16387;SDS011;8303;53.446;9.988;2023-06-10T08:34:32;43.47;;;40.70;;
16387;SDS011;8303;53.446;9.988;2023-06-10T08:37:00;43.72;;;41.15;;
16387;SDS011;8303;53.446;9.988;2023-06-10T08:39:27;50.22;;;47.00;;
16387;SDS011;8303;53.446;9.988;2023-06-10T08:42:00;52.42;;;49.05;;
16387;SDS011;8303;53.446;9.988;2023-06-10T08:44:35;63.67;;;59.90;;
16387;SDS011;8303;53.446;9.988;2023-06-10T08:47:06;56.70;;;53.35;;
16387;SDS011;8303;53.446;9.988;2023-06-10T08:49:43;54.83;;;51.63;;
16387;SDS011;8303;53.446;9.988;2023-06-10T08:52:13;53.53;;;50.15;;
16387;SDS011;8303;53.446;9.988;2023-06-10T08:54:42;56.67;;;52.95;;
16387;SDS011;8303;53.446;9.988;2023-06-10T08:57:11;44.10;;;41.15;;
16387;SDS011;8303;53.446;9.988;2023-06-10T08:59:40;47.22;;;44.28;;
16387;SDS011;8303;53.446;9.988;2023-06-10T09:02:07;43.40;;;40.55;;
16387;SDS011;8303;53.446;9.988;2023-06-10T09:04:36;37.45;;;35.10;;
16387;SDS011;8303;53.446;9.988;2023-06-10T09:07:03;39.85;;;37.17;;
16387;SDS011;8303;53.446;9.988;2023-06-10T09:09:32;29.25;;;27.25;;
16387;SDS011;8303;53.446;9.988;2023-06-10T09:12:00;35.45;;;33.17;;
16387;SDS011;8303;53.446;9.988;2023-06-10T09:14:28;35.28;;;32.85;;
16387;SDS011;8303;53.446;9.988;2023-06-10T09:16:56;32.90;;;30.65;;
16387;SDS011;8303;53.446;9.988;2023-06-10T09:19:23;37.70;;;34.90;;
16387;SDS011;8303;53.446;9.988;2023-06-10T09:21:53;35.85;;;33.35;;
16387;SDS011;8303;53.446;9.988;2023-06-10T09:24:20;26.88;;;25.13;;
16387;SDS011;8303;53.446;9.988;2023-06-10T09:26:49;20.70;;;19.13;;
16387;SDS011;8303;53.446;9.988;2023-06-10T09:29:16;29.40;;;27.27;;
16387;SDS011;8303;53.446;9.988;2023-06-10T09:31:43;23.35;;;21.77;;
16387;SDS011;8303;53.446;9.988;2023-06-10T09:34:12;25.20;;;23.27;;
16387;SDS011;8303;53.446;9.988;2023-06-10T09:36:40;25.35;;;23.60;;
16387;SDS011;8303;53.446;9.988;2023-06-10T09:39:13;14.45;;;13.45;;
16387;SDS011;8303;53.446;9.988;2023-06-10T09:41:41;16.63;;;15.32;;
16387;SDS011;8303;53.446;9.988;2023-06-10T09:44:12;15.40;;;14.00;;
16387;SDS011;8303;53.446;9.988;2023-06-10T09:46:40;13.98;;;12.75;;
16387;SDS011;8303;53.446;9.988;2023-06-10T09:49:08;11.60;;;10.73;;
16387;SDS011;8303;53.446;9.988;2023-06-10T09:51:36;12.90;;;11.73;;
16387;SDS011;8303;53.446;9.988;2023-06-10T09:54:03;11.60;;;10.68;;
16387;SDS011;8303;53.446;9.988;2023-06-10T09:56:34;12.65;;;11.40;;
16387;SDS011;8303;53.446;9.988;2023-06-10T09:59:01;11.50;;;10.40;;
16387;SDS011;8303;53.446;9.988;2023-06-10T10:01:31;11.75;;;10.70;;
16387;SDS011;8303;53.446;9.988;2023-06-10T10:03:58;13.13;;;11.77;;
16387;SDS011;8303;53.446;9.988;2023-06-10T10:06:26;13.75;;;11.52;;
16387;SDS011;8303;53.446;9.988;2023-06-10T10:08:56;14.57;;;12.10;;
16387;SDS011;8303;53.446;9.988;2023-06-10T10:11:23;13.50;;;11.18;;
16387;SDS011;8303;53.446;9.988;2023-06-10T10:13:51;11.90;;;10.73;;
16387;SDS011;8303;53.446;9.988;2023-06-10T10:16:20;11.40;;;10.30;;
16387;SDS011;8303;53.446;9.988;2023-06-10T10:18:51;12.55;;;11.10;;
16387;SDS011;8303;53.446;9.988;2023-06-10T10:21:21;15.85;;;14.20;;
16387;SDS011;8303;53.446;9.988;2023-06-10T10:23:52;15.32;;;13.93;;
16387;SDS011;8303;53.446;9.988;2023-06-10T10:26:25;13.25;;;12.15;;
16387;SDS011;8303;53.446;9.988;2023-06-10T10:28:55;16.30;;;14.90;;
16387;SDS011;8303;53.446;9.988;2023-06-10T10:31:30;16.38;;;15.18;;
16387;SDS011;8303;53.446;9.988;2023-06-10T10:34:02;16.73;;;15.48;;
16387;SDS011;8303;53.446;9.988;2023-06-10T10:36:32;26.40;;;24.20;;
16387;SDS011;8303;53.446;9.988;2023-06-10T10:39:01;29.30;;;27.40;;
16387;SDS011;8303;53.446;9.988;2023-06-10T10:41:30;21.80;;;20.23;;
16387;SDS011;8303;53.446;9.988;2023-06-10T10:43:58;37.85;;;35.45;;
16387;SDS011;8303;53.446;9.988;2023-06-10T10:46:26;47.38;;;44.40;;
16387;SDS011;8303;53.446;9.988;2023-06-10T10:48:53;44.63;;;41.72;;
16387;SDS011;8303;53.446;9.988;2023-06-10T10:51:22;40.38;;;37.72;;
16387;SDS011;8303;53.446;9.988;2023-06-10T10:56:40;32.95;;;30.52;;
16387;SDS011;8303;53.446;9.988;2023-06-10T10:59:51;37.58;;;35.17;;
16387;SDS011;8303;53.446;9.988;2023-06-10T11:02:35;22.80;;;21.08;;
16387;SDS011;8303;53.446;9.988;2023-06-10T11:05:04;25.65;;;23.70;;
16387;SDS011;8303;53.446;9.988;2023-06-10T11:07:32;24.92;;;23.02;;
16387;SDS011;8303;53.446;9.988;2023-06-10T11:10:00;32.53;;;30.13;;
16387;SDS011;8303;53.446;9.988;2023-06-10T11:15:24;36.30;;;33.83;;
16387;SDS011;8303;53.446;9.988;2023-06-10T11:18:11;31.20;;;29.27;;
16387;SDS011;8303;53.446;9.988;2023-06-10T11:20:52;29.23;;;27.20;;
16387;SDS011;8303;53.446;9.988;2023-06-10T11:23:25;27.20;;;25.48;;
16387;SDS011;8303;53.446;9.988;2023-06-10T11:26:17;33.88;;;31.42;;
16387;SDS011;8303;53.446;9.988;2023-06-10T11:29:03;32.38;;;30.08;;
16387;SDS011;8303;53.446;9.988;2023-06-10T11:31:44;28.45;;;26.52;;
16387;SDS011;8303;53.446;9.988;2023-06-10T11:34:23;29.23;;;27.27;;
16387;SDS011;8303;53.446;9.988;2023-06-10T11:36:52;34.65;;;32.53;;
16387;SDS011;8303;53.446;9.988;2023-06-10T11:39:20;30.98;;;28.63;;
16387;SDS011;8303;53.446;9.988;2023-06-10T11:41:51;38.97;;;36.53;;
16387;SDS011;8303;53.446;9.988;2023-06-10T11:44:20;28.38;;;26.40;;
16387;SDS011;8303;53.446;9.988;2023-06-10T11:46:47;31.45;;;29.45;;
16387;SDS011;8303;53.446;9.988;2023-06-10T11:49:15;29.15;;;27.23;;
16387;SDS011;8303;53.446;9.988;2023-06-10T11:51:42;28.25;;;26.33;;
16387;SDS011;8303;53.446;9.988;2023-06-10T11:54:14;27.83;;;25.90;;
16387;SDS011;8303;53.446;9.988;2023-06-10T11:56:42;26.08;;;24.30;;
16387;SDS011;8303;53.446;9.988;2023-06-10T11:59:09;21.35;;;19.90;;
16387;SDS011;8303;53.446;9.988;2023-06-10T12:01:38;25.15;;;23.05;;
16387;SDS011;8303;53.446;9.988;2023-06-10T12:04:09;25.15;;;23.33;;
16387;SDS011;8303;53.446;9.988;2023-06-10T12:06:38;26.50;;;24.60;;
16387;SDS011;8303;53.446;9.988;2023-06-10T12:09:16;25.45;;;23.60;;
16387;SDS011;8303;53.446;9.988;2023-06-10T12:11:45;22.85;;;21.02;;
16387;SDS011;8303;53.446;9.988;2023-06-10T12:14:14;19.88;;;18.55;;
16387;SDS011;8303;53.446;9.988;2023-06-10T12:16:49;15.80;;;14.52;;
16387;SDS011;8303;53.446;9.988;2023-06-10T12:19:15;20.23;;;18.50;;
16387;SDS011;8303;53.446;9.988;2023-06-10T12:21:42;19.55;;;18.05;;
16387;SDS011;8303;53.446;9.988;2023-06-10T12:24:11;20.40;;;18.98;;
16387;SDS011;8303;53.446;9.988;2023-06-10T12:26:41;21.35;;;19.95;;
16387;SDS011;8303;53.446;9.988;2023-06-10T12:29:15;18.73;;;17.10;;
16387;SDS011;8303;53.446;9.988;2023-06-10T12:31:57;17.30;;;16.00;;
16387;SDS011;8303;53.446;9.988;2023-06-10T12:34:32;15.25;;;12.40;;
16387;SDS011;8303;53.446;9.988;2023-06-10T12:37:01;15.05;;;13.75;;
16387;SDS011;8303;53.446;9.988;2023-06-10T12:39:29;14.85;;;13.77;;
16387;SDS011;8303;53.446;9.988;2023-06-10T12:41:57;17.17;;;15.73;;
16387;SDS011;8303;53.446;9.988;2023-06-10T12:44:34;14.38;;;13.20;;
16387;SDS011;8303;53.446;9.988;2023-06-10T12:47:08;13.73;;;12.63;;
16387;SDS011;8303;53.446;9.988;2023-06-10T12:49:37;13.43;;;12.25;;
16387;SDS011;8303;53.446;9.988;2023-06-10T12:52:04;14.10;;;12.88;;
16387;SDS011;8303;53.446;9.988;2023-06-10T12:54:34;14.52;;;13.32;;
16387;SDS011;8303;53.446;9.988;2023-06-10T12:57:01;26.98;;;25.00;;
16387;SDS011;8303;53.446;9.988;2023-06-10T12:59:28;22.92;;;21.25;;
16387;SDS011;8303;53.446;9.988;2023-06-10T13:01:56;34.72;;;32.13;;
16387;SDS011;8303;53.446;9.988;2023-06-10T13:04:25;49.38;;;46.25;;
16387;SDS011;8303;53.446;9.988;2023-06-10T13:06:52;38.15;;;35.10;;
16387;SDS011;8303;53.446;9.988;2023-06-10T13:09:21;41.95;;;39.40;;
16387;SDS011;8303;53.446;9.988;2023-06-10T13:11:48;38.83;;;36.13;;
16387;SDS011;8303;53.446;9.988;2023-06-10T13:14:15;40.05;;;37.67;;
16387;SDS011;8303;53.446;9.988;2023-06-10T13:16:42;40.88;;;38.28;;
16387;SDS011;8303;53.446;9.988;2023-06-10T13:19:09;48.38;;;45.35;;
16387;SDS011;8303;53.446;9.988;2023-06-10T13:21:38;37.78;;;35.38;;
16387;SDS011;8303;53.446;9.988;2023-06-10T13:24:05;38.47;;;36.00;;
16387;SDS011;8303;53.446;9.988;2023-06-10T13:26:32;38.70;;;36.40;;
16387;SDS011;8303;53.446;9.988;2023-06-10T13:28:59;39.05;;;36.65;;
16387;SDS011;8303;53.446;9.988;2023-06-10T13:31:26;38.25;;;35.75;;
16387;SDS011;8303;53.446;9.988;2023-06-10T13:33:53;37.25;;;34.83;;
16387;SDS011;8303;53.446;9.988;2023-06-10T13:36:20;38.95;;;36.45;;
16387;SDS011;8303;53.446;9.988;2023-06-10T13:38:48;33.25;;;31.00;;
16387;SDS011;8303;53.446;9.988;2023-06-10T13:41:15;34.08;;;31.65;;
16387;SDS011;8303;53.446;9.988;2023-06-10T13:43:42;21.23;;;19.23;;
16387;SDS011;8303;53.446;9.988;2023-06-10T13:46:08;11.10;;;10.20;;
16387;SDS011;8303;53.446;9.988;2023-06-10T13:48:35;12.70;;;11.70;;
16387;SDS011;8303;53.446;9.988;2023-06-10T13:51:05;14.73;;;13.52;;
16387;SDS011;8303;53.446;9.988;2023-06-10T13:53:34;16.75;;;15.27;;
16387;SDS011;8303;53.446;9.988;2023-06-10T13:56:02;16.13;;;14.82;;
16387;SDS011;8303;53.446;9.988;2023-06-10T13:58:29;14.05;;;12.95;;
16387;SDS011;8303;53.446;9.988;2023-06-10T14:00:56;13.52;;;12.20;;
16387;SDS011;8303;53.446;9.988;2023-06-10T14:03:24;14.40;;;11.57;;
16387;SDS011;8303;53.446;9.988;2023-06-10T14:05:51;11.43;;;10.63;;
16387;SDS011;8303;53.446;9.988;2023-06-10T14:08:18;12.52;;;11.57;;
16387;SDS011;8303;53.446;9.988;2023-06-10T14:10:45;13.25;;;12.07;;
16387;SDS011;8303;53.446;9.988;2023-06-10T14:13:14;15.25;;;13.93;;
16387;SDS011;8303;53.446;9.988;2023-06-10T14:15:41;16.67;;;15.38;;
16387;SDS011;8303;53.446;9.988;2023-06-10T14:18:13;14.88;;;13.77;;
16387;SDS011;8303;53.446;9.988;2023-06-10T14:20:39;12.55;;;11.43;;
16387;SDS011;8303;53.446;9.988;2023-06-10T14:23:06;12.43;;;9.65;;
16387;SDS011;8303;53.446;9.988;2023-06-10T14:25:33;15.05;;;10.18;;
16387;SDS011;8303;53.446;9.988;2023-06-10T14:28:00;11.68;;;10.43;;
16387;SDS011;8303;53.446;9.988;2023-06-10T14:30:28;11.43;;;9.55;;
16387;SDS011;8303;53.446;9.988;2023-06-10T14:32:55;12.32;;;11.20;;
16387;SDS011;8303;53.446;9.988;2023-06-10T14:35:22;10.52;;;9.57;;
16387;SDS011;8303;53.446;9.988;2023-06-10T14:37:49;15.07;;;9.07;;
16387;SDS011;8303;53.446;9.988;2023-06-10T14:40:16;12.52;;;11.55;;
16387;SDS011;8303;53.446;9.988;2023-06-10T14:42:43;13.13;;;11.93;;
16387;SDS011;8303;53.446;9.988;2023-06-10T14:45:10;16.60;;;15.05;;
16387;SDS011;8303;53.446;9.988;2023-06-10T14:47:38;13.15;;;11.65;;
16387;SDS011;8303;53.446;9.988;2023-06-10T14:50:05;11.13;;;10.00;;
16387;SDS011;8303;53.446;9.988;2023-06-10T14:52:32;11.35;;;10.27;;
16387;SDS011;8303;53.446;9.988;2023-06-10T14:54:59;11.48;;;9.88;;
16387;SDS011;8303;53.446;9.988;2023-06-10T14:57:26;11.93;;;10.82;;
16387;SDS011;8303;53.446;9.988;2023-06-10T14:59:53;14.20;;;13.00;;
16387;SDS011;8303;53.446;9.988;2023-06-10T15:02:21;14.75;;;13.23;;
16387;SDS011;8303;53.446;9.988;2023-06-10T15:04:49;13.10;;;12.10;;
16387;SDS011;8303;53.446;9.988;2023-06-10T15:07:16;14.02;;;12.65;;
16387;SDS011;8303;53.446;9.988;2023-06-10T15:09:43;14.00;;;12.70;;
16387;SDS011;8303;53.446;9.988;2023-06-10T15:12:10;14.60;;;10.93;;
16387;SDS011;8303;53.446;9.988;2023-06-10T15:14:36;11.52;;;10.05;;
16387;SDS011;8303;53.446;9.988;2023-06-10T15:17:03;13.38;;;9.75;;
16387;SDS011;8303;53.446;9.988;2023-06-10T15:19:30;12.73;;;11.00;;
16387;SDS011;8303;53.446;9.988;2023-06-10T15:21:58;12.98;;;11.82;;
16387;SDS011;8303;53.446;9.988;2023-06-10T15:24:25;13.07;;;11.15;;
16387;SDS011;8303;53.446;9.988;2023-06-10T15:26:52;11.30;;;10.30;;
16387;SDS011;8303;53.446;9.988;2023-06-10T15:29:19;13.07;;;11.98;;
16387;SDS011;8303;53.446;9.988;2023-06-10T15:31:46;11.90;;;10.90;;
16387;SDS011;8303;53.446;9.988;2023-06-10T15:34:13;13.82;;;12.48;;
16387;SDS011;8303;53.446;9.988;2023-06-10T15:36:40;11.48;;;10.23;;
16387;SDS011;8303;53.446;9.988;2023-06-10T15:39:08;11.13;;;10.13;;
16387;SDS011;8303;53.446;9.988;2023-06-10T15:41:35;13.80;;;12.63;;
16387;SDS011;8303;53.446;9.988;2023-06-10T15:44:02;14.07;;;12.98;;
16387;SDS011;8303;53.446;9.988;2023-06-10T15:46:29;11.20;;;10.20;;
16387;SDS011;8303;53.446;9.988;2023-06-10T15:48:56;11.77;;;10.88;;
16387;SDS011;8303;53.446;9.988;2023-06-10T15:51:23;17.40;;;11.48;;
16387;SDS011;8303;53.446;9.988;2023-06-10T15:53:50;10.50;;;9.07;;
16387;SDS011;8303;53.446;9.988;2023-06-10T15:56:19;10.50;;;8.98;;
16387;SDS011;8303;53.446;9.988;2023-06-10T15:58:46;15.88;;;10.30;;
16387;SDS011;8303;53.446;9.988;2023-06-10T16:01:13;10.75;;;9.65;;
16387;SDS011;8303;53.446;9.988;2023-06-10T16:03:40;11.10;;;10.02;;
16387;SDS011;8303;53.446;9.988;2023-06-10T16:06:07;11.82;;;10.35;;
16387;SDS011;8303;53.446;9.988;2023-06-10T16:08:34;10.75;;;9.60;;
16387;SDS011;8303;53.446;9.988;2023-06-10T16:11:01;13.27;;;12.07;;
16387;SDS011;8303;53.446;9.988;2023-06-10T16:13:30;12.95;;;11.80;;
16387;SDS011;8303;53.446;9.988;2023-06-10T16:15:57;14.13;;;12.93;;
16387;SDS011;8303;53.446;9.988;2023-06-10T16:18:24;12.40;;;11.30;;
16387;SDS011;8303;53.446;9.988;2023-06-10T16:20:51;14.23;;;12.75;;
16387;SDS011;8303;53.446;9.988;2023-06-10T16:23:18;16.42;;;13.38;;
16387;SDS011;8303;53.446;9.988;2023-06-10T16:25:45;12.82;;;11.63;;
16387;SDS011;8303;53.446;9.988;2023-06-10T16:28:12;13.98;;;12.60;;
16387;SDS011;8303;53.446;9.988;2023-06-10T16:30:40;12.45;;;11.45;;
16387;SDS011;8303;53.446;9.988;2023-06-10T16:33:07;11.40;;;10.27;;
16387;SDS011;8303;53.446;9.988;2023-06-10T16:35:34;11.80;;;9.90;;
16387;SDS011;8303;53.446;9.988;2023-06-10T16:38:01;12.70;;;11.40;;
16387;SDS011;8303;53.446;9.988;2023-06-10T16:40:28;14.23;;;12.80;;
16387;SDS011;8303;53.446;9.988;2023-06-10T16:42:55;16.17;;;14.63;;
16387;SDS011;8303;53.446;9.988;2023-06-10T16:45:22;14.13;;;12.82;;
16387;SDS011;8303;53.446;9.988;2023-06-10T16:47:50;10.85;;;9.85;;
16387;SDS011;8303;53.446;9.988;2023-06-10T16:50:17;14.27;;;12.88;;
16387;SDS011;8303;53.446;9.988;2023-06-10T16:52:44;12.95;;;11.70;;
16387;SDS011;8303;53.446;9.988;2023-06-10T16:55:13;14.35;;;13.43;;
16387;SDS011;8303;53.446;9.988;2023-06-10T16:57:52;20.00;;;18.35;;
16387;SDS011;8303;53.446;9.988;2023-06-10T17:00:19;27.02;;;24.98;;
16387;SDS011;8303;53.446;9.988;2023-06-10T17:02:46;34.08;;;31.65;;
16387;SDS011;8303;53.446;9.988;2023-06-10T17:05:16;41.95;;;39.35;;
16387;SDS011;8303;53.446;9.988;2023-06-10T17:07:43;44.60;;;41.75;;
16387;SDS011;8303;53.446;9.988;2023-06-10T17:10:10;46.65;;;43.75;;
16387;SDS011;8303;53.446;9.988;2023-06-10T17:12:37;39.88;;;36.88;;
16387;SDS011;8303;53.446;9.988;2023-06-10T17:15:04;36.38;;;33.88;;
16387;SDS011;8303;53.446;9.988;2023-06-10T17:17:33;28.90;;;26.40;;
16387;SDS011;8303;53.446;9.988;2023-06-10T17:20:00;26.70;;;24.63;;
16387;SDS011;8303;53.446;9.988;2023-06-10T17:22:29;36.47;;;33.90;;
16387;SDS011;8303;53.446;9.988;2023-06-10T17:24:56;53.80;;;49.55;;
16387;SDS011;8303;53.446;9.988;2023-06-10T17:27:23;49.85;;;46.65;;
16387;SDS011;8303;53.446;9.988;2023-06-10T17:29:50;43.97;;;40.70;;
16387;SDS011;8303;53.446;9.988;2023-06-10T17:32:17;53.30;;;49.88;;
16387;SDS011;8303;53.446;9.988;2023-06-10T17:34:43;48.92;;;45.72;;
16387;SDS011;8303;53.446;9.988;2023-06-10T17:37:10;45.30;;;42.33;;
16387;SDS011;8303;53.446;9.988;2023-06-10T17:39:39;49.63;;;46.00;;
16387;SDS011;8303;53.446;9.988;2023-06-10T17:42:06;39.35;;;36.75;;
16387;SDS011;8303;53.446;9.988;2023-06-10T17:44:33;50.97;;;47.53;;
16387;SDS011;8303;53.446;9.988;2023-06-10T17:46:59;51.50;;;48.08;;
16387;SDS011;8303;53.446;9.988;2023-06-10T17:49:26;55.67;;;52.38;;
16387;SDS011;8303;53.446;9.988;2023-06-10T17:51:53;59.33;;;55.45;;
16387;SDS011;8303;53.446;9.988;2023-06-10T17:54:20;53.30;;;50.00;;
16387;SDS011;8303;53.446;9.988;2023-06-10T17:56:48;62.80;;;58.83;;
16387;SDS011;8303;53.446;9.988;2023-06-10T17:59:15;65.57;;;61.30;;
16387;SDS011;8303;53.446;9.988;2023-06-10T18:01:45;59.55;;;55.47;;
16387;SDS011;8303;53.446;9.988;2023-06-10T18:04:11;39.20;;;36.50;;
16387;SDS011;8303;53.446;9.988;2023-06-10T18:06:38;44.42;;;40.50;;
16387;SDS011;8303;53.446;9.988;2023-06-10T18:09:05;40.20;;;36.80;;
16387;SDS011;8303;53.446;9.988;2023-06-10T18:11:33;46.60;;;43.17;;
16387;SDS011;8303;53.446;9.988;2023-06-10T18:14:02;46.67;;;43.95;;
16387;SDS011;8303;53.446;9.988;2023-06-10T18:16:28;42.03;;;39.13;;
16387;SDS011;8303;53.446;9.988;2023-06-10T18:18:55;34.60;;;32.22;;
16387;SDS011;8303;53.446;9.988;2023-06-10T18:21:22;28.63;;;25.67;;
16387;SDS011;8303;53.446;9.988;2023-06-10T18:23:49;22.23;;;20.70;;
16387;SDS011;8303;53.446;9.988;2023-06-10T18:26:16;15.05;;;13.85;;
16387;SDS011;8303;53.446;9.988;2023-06-10T18:28:43;17.48;;;15.43;;
16387;SDS011;8303;53.446;9.988;2023-06-10T18:31:11;17.40;;;15.60;;
16387;SDS011;8303;53.446;9.988;2023-06-10T18:33:38;17.20;;;15.90;;
16387;SDS011;8303;53.446;9.988;2023-06-10T18:36:06;16.83;;;15.00;;
16387;SDS011;8303;53.446;9.988;2023-06-10T18:38:33;16.73;;;15.10;;
16387;SDS011;8303;53.446;9.988;2023-06-10T18:40:59;17.65;;;16.05;;
16387;SDS011;8303;53.446;9.988;2023-06-10T18:43:26;17.73;;;15.35;;
16387;SDS011;8303;53.446;9.988;2023-06-10T18:45:53;14.88;;;13.68;;
16387;SDS011;8303;53.446;9.988;2023-06-10T18:48:21;16.02;;;14.50;;
16387;SDS011;8303;53.446;9.988;2023-06-10T18:50:48;20.17;;;18.77;;
16387;SDS011;8303;53.446;9.988;2023-06-10T18:53:15;16.92;;;15.52;;
16387;SDS011;8303;53.446;9.988;2023-06-10T18:55:42;20.35;;;18.83;;
16387;SDS011;8303;53.446;9.988;2023-06-10T18:58:09;33.50;;;31.23;;
16387;SDS011;8303;53.446;9.988;2023-06-10T19:00:36;43.75;;;40.70;;
16387;SDS011;8303;53.446;9.988;2023-06-10T19:03:03;39.30;;;36.60;;
16387;SDS011;8303;53.446;9.988;2023-06-10T19:05:31;31.73;;;29.23;;
16387;SDS011;8303;53.446;9.988;2023-06-10T19:07:58;23.23;;;21.35;;
16387;SDS011;8303;53.446;9.988;2023-06-10T19:10:25;22.58;;;20.73;;
16387;SDS011;8303;53.446;9.988;2023-06-10T19:12:52;14.63;;;13.02;;
16387;SDS011;8303;53.446;9.988;2023-06-10T19:15:19;14.57;;;13.25;;
16387;SDS011;8303;53.446;9.988;2023-06-10T19:17:46;16.38;;;14.05;;
16387;SDS011;8303;53.446;9.988;2023-06-10T19:20:12;17.85;;;16.50;;
16387;SDS011;8303;53.446;9.988;2023-06-10T19:22:41;15.95;;;14.27;;
16387;SDS011;8303;53.446;9.988;2023-06-10T19:25:08;14.20;;;12.85;;
16387;SDS011;8303;53.446;9.988;2023-06-10T19:27:35;16.05;;;14.70;;
16387;SDS011;8303;53.446;9.988;2023-06-10T19:30:02;14.43;;;12.93;;